createdAt,value
2023-02-06T00:01:49.505Z,7.63
2023-02-06T00:04:17.933Z,5.07
2023-02-06T00:06:45.501Z,5.40
2023-02-06T00:09:13.124Z,6.47
2023-02-06T00:11:39.886Z,6.53
2023-02-06T00:14:07.124Z,6.05
2023-02-06T00:16:34.774Z,5.53
2023-02-06T00:19:01.743Z,4.93
2023-02-06T00:21:29.677Z,4.90
2023-02-06T00:23:59.496Z,6.60
2023-02-06T00:26:27.000Z,6.72
2023-02-06T00:28:54.070Z,5.70
2023-02-06T00:31:21.652Z,6.55
2023-02-06T00:33:48.743Z,7.50
2023-02-06T00:36:15.783Z,6.28
2023-02-06T00:38:42.707Z,6.95
2023-02-06T00:41:09.611Z,6.60
2023-02-06T00:43:36.675Z,5.22
2023-02-06T00:46:03.661Z,7.30
2023-02-06T00:48:30.670Z,5.28
2023-02-06T00:50:57.431Z,6.95
2023-02-06T00:53:24.196Z,5.40
2023-02-06T00:55:52.195Z,6.60
2023-02-06T00:58:26.540Z,6.90
2023-02-06T01:00:53.731Z,5.05
2023-02-06T01:03:23.576Z,5.63
2023-02-06T01:05:54.260Z,6.13
2023-02-06T01:08:21.943Z,5.60
2023-02-06T01:10:48.677Z,5.90
2023-02-06T01:13:15.451Z,4.82
2023-02-06T01:15:42.616Z,6.20
2023-02-06T01:18:10.966Z,4.28
2023-02-06T01:20:40.685Z,5.22
2023-02-06T01:23:07.364Z,5.38
2023-02-06T01:25:34.195Z,4.50
2023-02-06T01:28:02.254Z,5.63
2023-02-06T01:30:30.155Z,4.60
2023-02-06T01:32:57.112Z,4.43
2023-02-06T01:35:23.828Z,4.88
2023-02-06T01:37:50.733Z,4.32
2023-02-06T01:40:21.056Z,3.92
2023-02-06T01:42:50.574Z,3.88
2023-02-06T01:45:21.482Z,4.50
2023-02-06T01:47:52.354Z,5.35
2023-02-06T01:50:21.003Z,4.07
2023-02-06T01:52:48.155Z,4.03
2023-02-06T01:55:15.401Z,4.72
2023-02-06T01:57:43.010Z,4.07
2023-02-06T02:00:11.376Z,3.80
2023-02-06T02:02:44.948Z,3.88
2023-02-06T02:05:12.911Z,4.28
2023-02-06T02:07:50.193Z,4.45
2023-02-06T02:10:17.352Z,4.53
2023-02-06T02:12:44.496Z,3.83
2023-02-06T02:15:11.556Z,4.35
2023-02-06T02:17:56.568Z,4.80
2023-02-06T02:23:40.694Z,4.45
2023-02-06T02:26:44.499Z,3.88
2023-02-06T02:29:20.273Z,4.00
2023-02-06T02:32:17.026Z,4.80
2023-02-06T02:35:06.084Z,4.65
2023-02-06T02:37:55.596Z,5.53
2023-02-06T02:40:36.379Z,3.67
2023-02-06T02:43:38.945Z,4.55
2023-02-06T02:46:16.997Z,4.25
2023-02-06T02:48:47.848Z,4.53
2023-02-06T02:51:19.086Z,4.32
2023-02-06T02:53:47.827Z,5.15
2023-02-06T02:56:21.003Z,4.65
2023-02-06T02:58:53.684Z,4.68
2023-02-06T03:01:25.911Z,4.57
2023-02-06T03:03:58.341Z,4.03
2023-02-06T03:06:56.055Z,3.95
2023-02-06T03:09:46.140Z,4.40
2023-02-06T03:12:34.796Z,4.30
2023-02-06T03:15:12.788Z,6.50
2023-02-06T03:17:47.609Z,4.93
2023-02-06T03:20:17.117Z,4.18
2023-02-06T03:22:48.964Z,5.47
2023-02-06T03:25:23.984Z,4.78
2023-02-06T03:27:53.516Z,4.05
2023-02-06T03:30:23.992Z,4.88
2023-02-06T03:32:56.658Z,4.63
2023-02-06T03:35:29.659Z,4.47
2023-02-06T03:37:56.683Z,4.55
2023-02-06T03:40:25.022Z,4.88
2023-02-06T03:42:56.782Z,4.00
2023-02-06T03:45:26.571Z,3.67
2023-02-06T03:47:58.892Z,4.90
2023-02-06T03:50:26.991Z,4.43
2023-02-06T03:52:58.443Z,4.72
2023-02-06T03:55:25.375Z,3.90
2023-02-06T03:57:56.333Z,4.15
2023-02-06T04:00:23.559Z,3.95
2023-02-06T04:02:52.597Z,4.10
2023-02-06T04:05:20.146Z,4.68
2023-02-06T04:07:47.343Z,5.63
2023-02-06T04:10:14.399Z,4.78
2023-02-06T04:12:41.146Z,4.65
2023-02-06T04:15:08.423Z,4.80
2023-02-06T04:17:49.770Z,5.13
2023-02-06T04:20:22.144Z,4.45
2023-02-06T04:22:48.855Z,5.32
2023-02-06T04:25:15.932Z,4.53
2023-02-06T04:27:43.058Z,4.18
2023-02-06T04:30:10.381Z,4.72
2023-02-06T04:32:36.968Z,4.53
2023-02-06T04:35:03.943Z,5.05
2023-02-06T04:37:30.738Z,5.57
2023-02-06T04:39:57.752Z,4.93
2023-02-06T04:42:24.646Z,4.47
2023-02-06T04:44:51.570Z,4.63
2023-02-06T04:47:18.340Z,4.88
2023-02-06T04:49:45.190Z,4.30
2023-02-06T04:52:12.619Z,4.53
2023-02-06T04:54:39.261Z,4.55
2023-02-06T04:57:06.023Z,4.93
2023-02-06T04:59:32.968Z,4.90
2023-02-06T05:01:59.644Z,5.00
2023-02-06T05:04:29.418Z,4.72
2023-02-06T05:06:56.240Z,4.57
2023-02-06T05:09:22.931Z,5.50
2023-02-06T05:11:49.577Z,5.13
2023-02-06T05:14:16.281Z,5.38
2023-02-06T05:16:43.003Z,4.82
2023-02-06T05:19:09.974Z,5.03
2023-02-06T05:21:38.227Z,4.80
2023-02-06T05:24:05.503Z,5.18
2023-02-06T05:26:32.707Z,5.30
2023-02-06T05:28:59.869Z,4.68
2023-02-06T05:31:26.722Z,5.53
2023-02-06T05:33:54.986Z,5.00
2023-02-06T05:36:22.472Z,4.65
2023-02-06T05:38:49.918Z,5.10
2023-02-06T05:41:17.637Z,5.97
2023-02-06T05:43:44.542Z,4.75
2023-02-06T05:46:13.207Z,5.32
2023-02-06T05:48:40.793Z,4.80
2023-02-06T05:51:09.548Z,4.90
2023-02-06T05:53:38.754Z,5.60
2023-02-06T05:56:05.855Z,5.38
2023-02-06T05:58:32.606Z,4.75
2023-02-06T06:00:59.474Z,4.50
2023-02-06T06:03:26.311Z,4.47
2023-02-06T06:05:53.747Z,5.85
2023-02-06T06:08:21.813Z,5.22
2023-02-06T06:10:52.576Z,5.40
2023-02-06T06:13:19.437Z,5.05
2023-02-06T06:15:50.027Z,4.93
2023-02-06T06:18:17.326Z,4.55
2023-02-06T06:20:44.312Z,5.60
2023-02-06T06:23:11.214Z,4.88
2023-02-06T06:25:38.055Z,5.93
2023-02-06T06:28:05.443Z,6.93
2023-02-06T06:30:34.255Z,6.03
2023-02-06T06:33:03.837Z,5.82
2023-02-06T06:35:30.782Z,5.60
2023-02-06T06:37:57.732Z,7.20
2023-02-06T06:40:24.285Z,5.22
2023-02-06T06:42:51.308Z,6.35
2023-02-06T06:45:18.059Z,5.97
2023-02-06T06:47:45.114Z,6.03
2023-02-06T06:50:12.115Z,5.95
2023-02-06T06:52:39.226Z,6.47
2023-02-06T06:55:06.250Z,6.93
2023-02-06T06:57:33.289Z,6.32
2023-02-06T06:59:59.967Z,7.07
2023-02-06T07:02:28.736Z,7.18
2023-02-06T07:04:55.866Z,5.72
2023-02-06T07:07:22.776Z,6.85
2023-02-06T07:09:50.190Z,6.65
2023-02-06T07:12:17.620Z,6.32
2023-02-06T07:14:44.325Z,7.28
2023-02-06T07:17:13.791Z,6.93
2023-02-06T07:19:40.756Z,7.10
2023-02-06T07:22:08.164Z,6.85
2023-02-06T07:24:34.781Z,8.30
2023-02-06T07:27:02.666Z,8.20
2023-02-06T07:29:29.214Z,9.82
2023-02-06T07:31:56.273Z,6.47
2023-02-06T07:34:23.737Z,6.90
2023-02-06T07:36:50.897Z,7.38
2023-02-06T07:39:17.682Z,7.13
2023-02-06T07:41:46.206Z,7.68
2023-02-06T07:44:13.610Z,7.57
2023-02-06T07:46:40.661Z,7.30
2023-02-06T07:49:07.449Z,7.63
2023-02-06T07:51:34.370Z,6.53
2023-02-06T07:54:01.097Z,8.15
2023-02-06T07:56:28.159Z,7.68
2023-02-06T07:58:55.445Z,7.63
2023-02-06T08:01:23.202Z,7.30
2023-02-06T08:03:51.095Z,7.03
2023-02-06T08:06:19.273Z,8.30
2023-02-06T08:08:47.281Z,6.80
2023-02-06T08:11:17.240Z,7.10
2023-02-06T08:13:44.643Z,6.97
2023-02-06T08:16:17.649Z,6.45
2023-02-06T08:18:44.727Z,6.28
2023-02-06T08:21:24.110Z,6.57
2023-02-06T08:23:58.675Z,7.70
2023-02-06T08:26:27.829Z,6.78
2023-02-06T08:28:56.395Z,7.20
2023-02-06T08:31:29.417Z,6.03
2023-02-06T08:33:56.480Z,6.35
2023-02-06T08:36:24.417Z,6.53
2023-02-06T08:38:55.748Z,6.93
2023-02-06T08:41:28.716Z,6.93
2023-02-06T08:43:58.868Z,7.17
2023-02-06T08:46:28.915Z,7.13
2023-02-06T08:49:00.028Z,7.65
2023-02-06T08:51:31.045Z,7.32
2023-02-06T08:53:59.763Z,7.53
2023-02-06T08:56:29.726Z,8.55
2023-02-06T08:59:00.640Z,8.52
2023-02-06T09:01:29.255Z,7.72
2023-02-06T09:03:59.517Z,8.30
2023-02-06T09:06:28.452Z,8.65
2023-02-06T09:08:56.928Z,8.07
2023-02-06T09:11:31.183Z,7.88
2023-02-06T09:13:59.903Z,8.60
2023-02-06T09:16:28.224Z,8.95
2023-02-06T09:18:56.026Z,9.07
2023-02-06T09:21:24.969Z,7.53
2023-02-06T09:23:55.429Z,7.65
2023-02-06T09:26:26.185Z,8.13
2023-02-06T09:28:54.483Z,9.80
2023-02-06T09:31:21.389Z,9.95
2023-02-06T09:33:48.141Z,8.73
2023-02-06T09:36:18.543Z,8.85
2023-02-06T09:38:50.347Z,8.75
2023-02-06T09:41:19.261Z,9.05
2023-02-06T09:43:55.183Z,8.35
2023-02-06T09:46:27.433Z,8.75
2023-02-06T09:49:12.591Z,9.05
2023-02-06T09:52:25.849Z,7.85
2023-02-06T09:54:55.720Z,10.30
2023-02-06T09:57:51.074Z,9.93
2023-02-06T10:00:42.744Z,9.88
2023-02-06T10:03:39.524Z,9.40
2023-02-06T10:06:21.385Z,9.80
2023-02-06T10:08:54.129Z,8.60
2023-02-06T10:11:29.900Z,8.27
2023-02-06T10:14:02.257Z,8.30
2023-02-06T10:16:46.133Z,8.90
2023-02-06T10:19:23.944Z,6.40
2023-02-06T10:22:00.134Z,7.03
2023-02-06T10:24:48.097Z,6.97
2023-02-06T10:27:15.463Z,6.55
2023-02-06T10:29:47.868Z,6.95
2023-02-06T10:32:24.955Z,6.22
2023-02-06T10:35:01.448Z,5.30
2023-02-06T10:37:47.779Z,4.90
2023-02-06T10:40:41.159Z,5.03
2023-02-06T10:43:14.162Z,6.57
2023-02-06T10:46:23.326Z,4.57
2023-02-06T10:49:18.425Z,5.28
2023-02-06T10:51:49.187Z,4.95
2023-02-06T10:54:22.152Z,3.92
2023-02-06T10:56:50.415Z,3.87
2023-02-06T10:59:37.890Z,3.60
2023-02-06T11:02:11.888Z,3.33
2023-02-06T11:04:47.160Z,3.85
2023-02-06T11:07:38.250Z,4.00
2023-02-06T11:10:07.186Z,3.47
2023-02-06T11:12:33.943Z,3.17
2023-02-06T11:15:07.882Z,3.05
2023-02-06T11:20:20.241Z,3.40
2023-02-06T11:22:52.785Z,3.45
2023-02-06T11:25:29.248Z,3.65
2023-02-06T11:27:57.861Z,3.60
2023-02-06T11:30:27.642Z,3.38
2023-02-06T11:33:04.889Z,3.35
2023-02-06T11:35:38.303Z,3.75
2023-02-06T11:38:29.652Z,3.25
2023-02-06T11:41:06.572Z,2.58
2023-02-06T11:43:43.420Z,3.72
2023-02-06T11:46:13.927Z,3.13
2023-02-06T11:49:02.903Z,3.15
2023-02-06T11:51:45.868Z,3.17
2023-02-06T11:54:21.560Z,3.63
2023-02-06T11:57:01.944Z,2.97
2023-02-06T11:59:30.290Z,3.50
2023-02-06T12:01:57.692Z,4.10
2023-02-06T12:04:40.641Z,2.78
2023-02-06T12:07:28.786Z,3.03
2023-02-06T12:09:56.249Z,2.45
2023-02-06T12:12:36.427Z,2.42
2023-02-06T12:15:36.101Z,2.60
2023-02-06T12:18:12.782Z,3.13
2023-02-06T12:20:50.236Z,2.45
2023-02-06T12:23:26.586Z,2.63
2023-02-06T12:25:59.421Z,2.75
2023-02-06T12:28:45.285Z,2.80
2023-02-06T12:31:35.227Z,3.10
2023-02-06T12:34:24.769Z,2.20
2023-02-06T12:37:31.904Z,3.45
2023-02-06T12:40:02.139Z,2.50
2023-02-06T12:42:53.351Z,2.65
2023-02-06T12:45:47.573Z,2.90
2023-02-06T12:48:25.058Z,2.50
2023-02-06T12:51:30.384Z,2.60
2023-02-06T12:56:51.962Z,2.30
2023-02-06T12:59:55.681Z,2.80
2023-02-06T13:03:01.785Z,2.10
2023-02-06T13:05:38.948Z,2.55
2023-02-06T13:08:09.693Z,2.97
2023-02-06T13:10:39.443Z,2.67
2023-02-06T13:13:07.242Z,2.45
2023-02-06T13:15:41.669Z,2.78
2023-02-06T13:18:53.552Z,3.60
2023-02-06T13:21:32.321Z,2.40
2023-02-06T13:24:02.283Z,2.45
2023-02-06T13:26:53.374Z,2.00
2023-02-06T13:29:27.735Z,2.80
2023-02-06T13:34:43.367Z,2.38
2023-02-06T13:37:37.390Z,2.35
2023-02-06T13:40:23.296Z,2.08
2023-02-06T13:43:05.805Z,2.53
2023-02-06T13:45:57.812Z,1.90
2023-02-06T13:48:33.814Z,2.15
2023-02-06T13:51:12.505Z,2.03
2023-02-06T13:54:01.549Z,2.10
2023-02-06T13:56:50.216Z,2.33
2023-02-06T13:59:27.339Z,2.42
2023-02-06T14:01:55.228Z,1.88
2023-02-06T14:04:25.853Z,2.00
2023-02-06T14:06:56.732Z,2.08
2023-02-06T14:10:09.041Z,2.72
2023-02-06T14:13:13.112Z,2.35
2023-02-06T14:15:52.212Z,1.92
2023-02-06T14:18:31.223Z,2.50
2023-02-06T14:21:22.665Z,2.45
2023-02-06T14:24:14.629Z,2.30
2023-02-06T14:27:19.025Z,1.95
2023-02-06T14:29:53.876Z,3.70
2023-02-06T14:32:31.690Z,2.72
2023-02-06T14:35:22.296Z,2.00
2023-02-06T14:38:06.425Z,2.70
2023-02-06T14:40:39.067Z,2.60
2023-02-06T14:43:11.863Z,2.38
2023-02-06T14:45:43.335Z,2.80
2023-02-06T14:48:24.655Z,2.40
2023-02-06T14:50:57.190Z,2.47
2023-02-06T14:53:33.095Z,2.35
2023-02-06T14:56:12.406Z,2.03
2023-02-06T14:58:39.343Z,2.15
2023-02-06T15:01:24.841Z,2.28
2023-02-06T15:04:07.385Z,2.20
2023-02-06T15:06:43.752Z,2.20
2023-02-06T15:09:32.414Z,2.35
2023-02-06T15:12:02.845Z,2.17
2023-02-06T15:14:32.470Z,1.95
2023-02-06T15:17:00.995Z,2.78
2023-02-06T15:19:30.738Z,2.45
2023-02-06T15:22:01.565Z,3.78
2023-02-06T15:24:56.538Z,1.85
2023-02-06T15:27:26.560Z,2.42
2023-02-06T15:29:53.794Z,2.30
2023-02-06T15:32:29.217Z,2.63
2023-02-06T15:34:56.711Z,2.50
2023-02-06T15:37:34.679Z,2.53
2023-02-06T15:40:12.301Z,2.67
2023-02-06T15:42:39.760Z,3.10
2023-02-06T15:45:16.467Z,2.67
2023-02-06T15:47:47.225Z,2.75
2023-02-06T15:50:20.650Z,2.25
2023-02-06T15:52:49.144Z,2.83
2023-02-06T15:55:52.730Z,2.28
2023-02-06T15:58:22.294Z,3.10
2023-02-06T16:00:57.801Z,4.68
2023-02-06T16:03:28.252Z,2.53
2023-02-06T16:05:56.513Z,2.95
2023-02-06T16:08:35.558Z,2.72
2023-02-06T16:11:29.294Z,3.22
2023-02-06T16:13:59.978Z,3.88
2023-02-06T16:16:38.289Z,3.28
2023-02-06T16:19:29.385Z,4.25
2023-02-06T16:22:37.799Z,3.00
2023-02-06T16:25:31.807Z,3.13
2023-02-06T16:28:00.238Z,2.97
2023-02-06T16:30:30.862Z,3.45
2023-02-06T16:33:00.052Z,5.32
2023-02-06T16:35:27.095Z,3.30
2023-02-06T16:37:54.773Z,4.25
2023-02-06T16:40:21.810Z,3.72
2023-02-06T16:42:48.785Z,3.75
2023-02-06T16:45:23.773Z,3.58
2023-02-06T16:47:55.338Z,5.40
2023-02-06T16:50:24.679Z,4.43
2023-02-06T16:52:54.541Z,4.85
2023-02-06T16:55:27.730Z,4.43
2023-02-06T16:58:01.335Z,4.70
2023-02-06T17:02:58.913Z,3.80
2023-02-06T17:05:40.867Z,3.53
2023-02-06T17:08:20.604Z,3.63
2023-02-06T17:10:48.393Z,4.45
2023-02-06T17:13:24.380Z,5.40
2023-02-06T17:15:55.270Z,3.80
2023-02-06T17:18:32.784Z,3.20
2023-02-06T17:21:02.416Z,3.25
2023-02-06T17:23:29.113Z,4.05
2023-02-06T17:25:55.866Z,3.00
2023-02-06T17:28:22.725Z,3.65
2023-02-06T17:30:51.977Z,4.00
2023-02-06T17:33:18.765Z,3.33
2023-02-06T17:35:47.970Z,4.22
2023-02-06T17:38:15.011Z,3.50
2023-02-06T17:40:42.832Z,2.95
2023-02-06T17:43:09.635Z,3.65
2023-02-06T17:45:39.046Z,3.47
2023-02-06T17:48:06.968Z,4.32
2023-02-06T17:50:37.573Z,5.53
2023-02-06T17:53:05.951Z,5.72
2023-02-06T17:55:34.422Z,5.00
2023-02-06T17:58:01.087Z,4.53
2023-02-06T18:00:31.140Z,4.75
2023-02-06T18:02:59.925Z,4.38
2023-02-06T18:05:27.639Z,5.57
2023-02-06T18:07:54.495Z,5.25
2023-02-06T18:10:24.150Z,9.50
2023-02-06T18:12:56.771Z,9.93
2023-02-06T18:15:23.530Z,11.25
2023-02-06T18:17:50.639Z,11.77
2023-02-06T18:20:17.779Z,10.93
2023-02-06T18:22:44.838Z,9.55
2023-02-06T18:25:15.310Z,6.07
2023-02-06T18:27:47.786Z,5.80
2023-02-06T18:30:17.885Z,7.55
2023-02-06T18:32:44.784Z,4.75
2023-02-06T18:35:11.660Z,6.32
2023-02-06T18:37:38.408Z,7.22
2023-02-06T18:40:05.711Z,7.20
2023-02-06T18:42:52.338Z,6.45
2023-02-06T18:45:21.691Z,5.60
2023-02-06T18:47:49.275Z,5.72
2023-02-06T18:50:21.831Z,10.55
2023-02-06T18:52:49.781Z,23.58
2023-02-06T18:55:17.732Z,13.23
2023-02-06T18:57:44.655Z,13.10
2023-02-06T19:00:16.247Z,11.60
2023-02-06T19:02:43.648Z,8.38
2023-02-06T19:05:10.938Z,8.20
2023-02-06T19:07:37.869Z,9.88
2023-02-06T19:10:10.061Z,17.10
2023-02-06T19:12:38.824Z,8.63
2023-02-06T19:15:06.485Z,11.02
2023-02-06T19:17:36.084Z,19.83
2023-02-06T19:20:04.057Z,11.68
2023-02-06T19:22:36.517Z,9.02
2023-02-06T19:25:05.218Z,10.57
2023-02-06T19:27:31.807Z,8.45
2023-02-06T19:29:58.611Z,9.07
2023-02-06T19:32:28.624Z,7.32
2023-02-06T19:34:55.361Z,7.43
2023-02-06T19:37:23.670Z,6.95
2023-02-06T19:39:52.560Z,7.85
2023-02-06T19:42:19.261Z,9.55
2023-02-06T19:44:46.124Z,9.75
2023-02-06T19:47:13.162Z,9.38
2023-02-06T19:49:40.145Z,8.27
2023-02-06T19:52:09.497Z,6.97
2023-02-06T19:54:36.468Z,10.50
2023-02-06T19:57:03.629Z,9.73
2023-02-06T19:59:30.526Z,8.82
2023-02-06T20:02:00.267Z,9.40
2023-02-06T20:04:30.681Z,9.80
2023-02-06T20:06:57.989Z,10.13
2023-02-06T20:09:27.007Z,12.88
2023-02-06T20:11:54.481Z,11.02
2023-02-06T20:14:21.878Z,74.32
2023-02-06T20:16:49.812Z,15.75
2023-02-06T20:19:19.795Z,12.52
2023-02-06T20:21:50.069Z,14.13
2023-02-06T20:24:25.122Z,15.75
2023-02-06T20:26:56.050Z,16.35
2023-02-06T20:29:30.251Z,15.80
2023-02-06T20:31:57.705Z,13.18
2023-02-06T20:34:25.227Z,14.77
2023-02-06T20:36:52.921Z,15.23
2023-02-06T20:39:20.873Z,15.80
2023-02-06T20:41:50.960Z,18.60
2023-02-06T20:44:19.272Z,19.90
2023-02-06T20:46:46.821Z,18.75
2023-02-06T20:49:20.061Z,19.85
2023-02-06T20:51:54.900Z,29.15
2023-02-06T20:54:23.296Z,22.35
2023-02-06T20:56:50.837Z,21.63
2023-02-06T20:59:19.108Z,14.52
2023-02-06T21:01:46.497Z,16.80
2023-02-06T21:04:14.864Z,15.75
2023-02-06T21:06:43.956Z,15.35
2023-02-06T21:09:11.680Z,14.95
2023-02-06T21:11:44.983Z,15.68
2023-02-06T21:14:13.253Z,14.95
2023-02-06T21:16:41.088Z,16.15
2023-02-06T21:19:10.408Z,15.43
2023-02-06T21:21:37.895Z,16.45
2023-02-06T21:24:06.178Z,18.05
2023-02-06T21:26:33.279Z,15.10
2023-02-06T21:29:00.567Z,16.30
2023-02-06T21:31:36.779Z,11.88
2023-02-06T21:34:11.549Z,11.45
2023-02-06T21:36:39.672Z,11.52
2023-02-06T21:39:37.918Z,11.32
2023-02-06T21:42:08.574Z,9.93
2023-02-06T21:44:38.492Z,9.85
2023-02-06T21:47:07.030Z,9.73
2023-02-06T21:49:35.981Z,9.30
2023-02-06T21:52:10.072Z,10.82
2023-02-06T21:54:38.607Z,9.98
2023-02-06T21:57:06.826Z,9.43
2023-02-06T21:59:34.106Z,10.18
2023-02-06T22:02:01.176Z,9.57
2023-02-06T22:04:27.957Z,9.70
2023-02-06T22:06:54.701Z,9.18
2023-02-06T22:09:22.333Z,9.70
2023-02-06T22:11:49.300Z,8.93
2023-02-06T22:14:17.891Z,8.60
2023-02-06T22:16:46.765Z,8.68
2023-02-06T22:19:14.752Z,8.30
2023-02-06T22:21:42.780Z,8.82
2023-02-06T22:24:12.549Z,8.10
2023-02-06T22:26:39.641Z,7.70
2023-02-06T22:29:08.091Z,6.88
2023-02-06T22:31:35.681Z,7.03
2023-02-06T22:34:03.265Z,7.82
2023-02-06T22:36:32.504Z,7.32
2023-02-06T22:39:03.605Z,7.90
2023-02-06T22:41:30.590Z,7.78
2023-02-06T22:43:57.570Z,7.63
2023-02-06T22:46:36.445Z,8.48
2023-02-06T22:49:06.425Z,6.78
2023-02-06T22:51:33.450Z,6.70
2023-02-06T22:54:00.742Z,6.70
2023-02-06T22:56:37.201Z,7.45
2023-02-06T22:59:11.711Z,10.70
2023-02-06T23:01:49.339Z,12.85
2023-02-06T23:11:58.994Z,8.43
2023-02-06T23:14:28.397Z,8.52
2023-02-06T23:16:55.393Z,7.97
2023-02-06T23:19:22.609Z,9.20
2023-02-06T23:21:51.402Z,9.63
2023-02-06T23:24:19.134Z,10.00
2023-02-06T23:26:48.145Z,10.27
2023-02-06T23:29:17.689Z,10.55
2023-02-06T23:31:46.331Z,10.55
2023-02-06T23:34:13.817Z,10.50
2023-02-06T23:36:40.680Z,10.50
2023-02-06T23:39:07.566Z,10.73
2023-02-06T23:41:34.844Z,10.07
2023-02-06T23:44:05.415Z,10.60
2023-02-06T23:46:34.662Z,10.00
2023-02-06T23:49:02.985Z,10.57
2023-02-06T23:51:29.804Z,10.90
2023-02-06T23:53:56.660Z,10.20
2023-02-06T23:56:29.165Z,9.73
2023-02-06T23:58:57.518Z,9.65
